Observation data for Morton on 06/15/2019      Previous  Date  Next       Current Mesonet Observations  Soil Data  Daily Summary Page  Observations in Plain Language
KMNS 150500Z 17012G17KT 24/14 A2986 RMK A01 T02430135  RH  053%=      5-min Rain = 0
KMNS 150505Z 17012G17KT 24/14 A2986 RMK A01 T02430140  RH  055%=      5-min Rain = 0
KMNS 150510Z 17013KT 24/14 A2986 RMK A01 T02430143  RH  056%=      5-min Rain = 0
KMNS 150515Z 17015KT 24/15 A2986 RMK A01 T02440145  RH  056%=      5-min Rain = 0
KMNS 150520Z 17015G20KT 25/14 A2986 RMK A01 T02450143  RH  055%=      5-min Rain = 0
KMNS 150525Z 18015G20KT 25/14 A2986 RMK A01 T02450140  RH  054%=      5-min Rain = 0
KMNS 150530Z 18017KT 25/14 A2986 RMK A01 T02450136  RH  053%=      5-min Rain = 0
KMNS 150535Z 18015G20KT 24/13 A2986 RMK A01 T02440133  RH  052%=      5-min Rain = 0
KMNS 150540Z 18014KT 24/13 A2986 RMK A01 T02420129  RH  051%=      5-min Rain = 0
KMNS 150545Z 18015G21KT 24/13 A2986 RMK A01 T02410125  RH  050%=      5-min Rain = 0
KMNS 150550Z 19016G21KT 24/12 A2986 RMK A01 T02410119  RH  048%=      5-min Rain = 0
KMNS 150555Z 19015KT 24/12 A2986 RMK A01 T02390117  RH  048%=      5-min Rain = 0
KMNS 150600Z 19016G22KT 24/12 A2986 RMK A01 T02380115  RH  047%=      5-min Rain = 0
KMNS 150605Z 19016G21KT 24/11 A2986 RMK A01 T02380114  RH  047%=      5-min Rain = 0
KMNS 150610Z 19016KT 24/11 A2986 RMK A01 T02360114  RH  048%=      5-min Rain = 0
KMNS 150615Z 19015KT 23/12 A2986 RMK A01 T02340115  RH  049%=      5-min Rain = 0
KMNS 150620Z 19016KT 23/12 A2986 RMK A01 T02340115  RH  049%=      5-min Rain = 0
KMNS 150625Z 19015G20KT 23/12 A2986 RMK A01 T02330116  RH  050%=      5-min Rain = 0
KMNS 150630Z 19016KT 23/12 A2986 RMK A01 T02310116  RH  050%=      5-min Rain = 0
KMNS 150635Z 19016KT 23/12 A2986 RMK A01 T02310117  RH  051%=      5-min Rain = 0
KMNS 150640Z 19016G21KT 23/12 A2985 RMK A01 T02290118  RH  051%=      5-min Rain = 0
KMNS 150645Z 20015KT 23/12 A2985 RMK A01 T02280118  RH  052%=      5-min Rain = 0
KMNS 150650Z 20015KT 23/12 A2985 RMK A01 T02260118  RH  052%=      5-min Rain = 0
KMNS 150655Z 20014KT 23/12 A2985 RMK A01 T02250119  RH  053%=      5-min Rain = 0
KMNS 150700Z 20015KT 23/12 A2985 RMK A01 T02250119  RH  053%=      5-min Rain = 0
KMNS 150705Z 20016KT 22/12 A2985 RMK A01 T02240120  RH  053%=      5-min Rain = 0
KMNS 150710Z 20015KT 22/12 A2985 RMK A01 T02240120  RH  054%=      5-min Rain = 0
KMNS 150715Z 20016G21KT 22/12 A2985 RMK A01 T02230120  RH  054%=      5-min Rain = 0
KMNS 150720Z 20017G22KT 23/12 A2984 RMK A01 T02260121  RH  053%=      5-min Rain = 0
KMNS 150725Z 20017KT 23/12 A2984 RMK A01 T02270121  RH  053%=      5-min Rain = 0
KMNS 150730Z 20017KT 23/12 A2984 RMK A01 T02270121  RH  053%=      5-min Rain = 0
KMNS 150735Z 20017G22KT 23/12 A2984 RMK A01 T02280121  RH  053%=      5-min Rain = 0
KMNS 150740Z 20017KT 23/12 A2984 RMK A01 T02280121  RH  053%=      5-min Rain = 0
KMNS 150745Z 20017G23KT 23/12 A2984 RMK A01 T02270122  RH  053%=      5-min Rain = 0
KMNS 150750Z 20018G23KT 23/12 A2984 RMK A01 T02270122  RH  053%=      5-min Rain = 0
KMNS 150755Z 21017KT 23/12 A2984 RMK A01 T02270123  RH  054%=      5-min Rain = 0
KMNS 150800Z 21017G22KT 23/12 A2984 RMK A01 T02270124  RH  054%=      5-min Rain = 0
KMNS 150805Z 21018G24KT 23/13 A2983 RMK A01 T02280125  RH  054%=      5-min Rain = 0
KMNS 150810Z 21019G24KT 23/13 A2983 RMK A01 T02290126  RH  054%=      5-min Rain = 0
KMNS 150815Z 21019G24KT 23/13 A2983 RMK A01 T02300127  RH  054%=      5-min Rain = 0
KMNS 150820Z 21018G23KT 23/13 A2983 RMK A01 T02290127  RH  054%=      5-min Rain = 0
KMNS 150825Z 21017KT 23/13 A2983 RMK A01 T02290126  RH  054%=      5-min Rain = 0
KMNS 150830Z 21017G23KT 23/12 A2983 RMK A01 T02290124  RH  054%=      5-min Rain = 0
KMNS 150835Z 21018G23KT 23/12 A2983 RMK A01 T02300123  RH  053%=      5-min Rain = 0
KMNS 150840Z 21018G23KT 23/12 A2983 RMK A01 T02300121  RH  052%=      5-min Rain = 0
KMNS 150845Z 21017G23KT 23/12 A2983 RMK A01 T02310119  RH  051%=      5-min Rain = 0
KMNS 150850Z 21017KT 23/12 A2983 RMK A01 T02300118  RH  051%=      5-min Rain = 0
KMNS 150855Z 21017G22KT 23/12 A2983 RMK A01 T02300116  RH  050%=      5-min Rain = 0
KMNS 150900Z 20017G24KT 23/11 A2983 RMK A01 T02300113  RH  050%=      5-min Rain = 0
KMNS 150905Z 21017G23KT 23/11 A2983 RMK A01 T02300111  RH  049%=      5-min Rain = 0
KMNS 150910Z 21017G22KT 23/11 A2983 RMK A01 T02290110  RH  049%=      5-min Rain = 0
KMNS 150915Z 21017KT 23/11 A2984 RMK A01 T02290108  RH  048%=      5-min Rain = 0
KMNS 150920Z 21017G22KT 23/11 A2983 RMK A01 T02290107  RH  048%=      5-min Rain = 0
KMNS 150925Z 21018G25KT 23/11 A2983 RMK A01 T02290106  RH  047%=      5-min Rain = 0
KMNS 150930Z 21016G21KT 23/10 A2984 RMK A01 T02290104  RH  047%=      5-min Rain = 0
KMNS 150935Z 21015KT 23/10 A2984 RMK A01 T02270103  RH  047%=      5-min Rain = 0
KMNS 150940Z 22016G21KT 23/10 A2984 RMK A01 T02260102  RH  047%=      5-min Rain = 0
KMNS 150945Z 22016G21KT 23/10 A2984 RMK A01 T02250101  RH  047%=      5-min Rain = 0
KMNS 150950Z 22018KT 23/10 A2984 RMK A01 T02260101  RH  046%=      5-min Rain = 0
KMNS 150955Z 22016KT 23/10 A2984 RMK A01 T02250100  RH  046%=      5-min Rain = 0
KMNS 151000Z 22017KT 23/10 A2984 RMK A01 T02250099  RH  046%=      5-min Rain = 0
KMNS 151005Z 23015KT 22/10 A2985 RMK A01 T02220098  RH  047%=      5-min Rain = 0
KMNS 151010Z 22015KT 22/10 A2985 RMK A01 T02200097  RH  047%=      5-min Rain = 0
KMNS 151015Z 23015KT 22/10 A2985 RMK A01 T02190097  RH  047%=      5-min Rain = 0
KMNS 151020Z 23014G21KT 22/10 A2985 RMK A01 T02180097  RH  047%=      5-min Rain = 0
KMNS 151025Z 23015KT 22/10 A2985 RMK A01 T02160098  RH  048%=      5-min Rain = 0
KMNS 151030Z 23015KT 22/10 A2985 RMK A01 T02160098  RH  048%=      5-min Rain = 0
KMNS 151035Z 23015G21KT 21/10 A2985 RMK A01 T02140099  RH  049%=      5-min Rain = 0
KMNS 151040Z 23016KT 22/10 A2985 RMK A01 T02150099  RH  049%=      5-min Rain = 0
KMNS 151045Z 23016KT 21/10 A2985 RMK A01 T02140100  RH  050%=      5-min Rain = 0
KMNS 151050Z 23015G20KT 21/10 A2985 RMK A01 T02130100  RH  050%=      5-min Rain = 0
KMNS 151055Z 22015KT 21/10 A2984 RMK A01 T02110100  RH  051%=      5-min Rain = 0
KMNS 151100Z 23015G20KT 21/10 A2984 RMK A01 T02110100  RH  051%=      5-min Rain = 0
KMNS 151105Z 23014G19KT 21/10 A2984 RMK A01 T02090100  RH  051%=      5-min Rain = 0
KMNS 151110Z 23014KT 21/10 A2985 RMK A01 T02070100  RH  052%=      5-min Rain = 0
KMNS 151115Z 23015KT 21/10 A2985 RMK A01 T02070101  RH  052%=      5-min Rain = 0
KMNS 151120Z 23016G21KT 21/10 A2985 RMK A01 T02060101  RH  052%=      5-min Rain = 0
KMNS 151125Z 23015KT 21/10 A2985 RMK A01 T02060101  RH  053%=      5-min Rain = 0
KMNS 151130Z 23014KT 20/10 A2985 RMK A01 T02030101  RH  054%=      5-min Rain = 0
KMNS 151135Z 23015KT 20/10 A2985 RMK A01 T02020102  RH  054%=      5-min Rain = 0
KMNS 151140Z 23016KT 20/10 A2985 RMK A01 T02030102  RH  054%=      5-min Rain = 0
KMNS 151145Z 23015KT 20/10 A2985 RMK A01 T02010102  RH  055%=      5-min Rain = 0
KMNS 151150Z 23014G19KT 20/10 A2985 RMK A01 T02000103  RH  055%=      5-min Rain = 0
KMNS 151155Z 23013KT 20/10 A2985 RMK A01 T01990103  RH  056%=      5-min Rain = 0
KMNS 151200Z 23013KT 20/10 A2985 RMK A01 T01980103  RH  056%=      5-min Rain = 0
KMNS 151205Z 23014KT 20/10 A2986 RMK A01 T01970103  RH  056%=      5-min Rain = 0
KMNS 151210Z 23013KT 20/10 A2986 RMK A01 T01980103  RH  056%=      5-min Rain = 0
KMNS 151215Z 23013KT 20/10 A2986 RMK A01 T01980104  RH  056%=      5-min Rain = 0
KMNS 151220Z 24012G17KT 20/10 A2986 RMK A01 T01970104  RH  057%=      5-min Rain = 0
KMNS 151225Z 24012KT 20/10 A2986 RMK A01 T01970104  RH  057%=      5-min Rain = 0
KMNS 151230Z 26010KT 20/11 A2986 RMK A01 T01960105  RH  057%=      5-min Rain = 0
KMNS 151235Z 26012KT 20/11 A2986 RMK A01 T01950105  RH  058%=      5-min Rain = 0
KMNS 151240Z 26011KT 20/11 A2986 RMK A01 T01950105  RH  058%=      5-min Rain = 0
KMNS 151245Z 26010KT 20/10 A2986 RMK A01 T01970104  RH  057%=      5-min Rain = 0
KMNS 151250Z 26011KT 20/10 A2986 RMK A01 T02010102  RH  055%=      5-min Rain = 0
KMNS 151255Z 26012KT 21/10 A2986 RMK A01 T02060097  RH  051%=      5-min Rain = 0
KMNS 151300Z 27011KT 21/09 A2986 RMK A01 T02110094  RH  049%=      5-min Rain = 0
KMNS 151305Z 27011KT 21/09 A2986 RMK A01 T02140089  RH  046%=      5-min Rain = 0
KMNS 151310Z 27011KT 22/09 A2986 RMK A01 T02170085  RH  044%=      5-min Rain = 0
KMNS 151315Z 27012KT 22/08 A2986 RMK A01 T02180082  RH  043%=      5-min Rain = 0
KMNS 151320Z 27012KT 22/08 A2987 RMK A01 T02210079  RH  041%=      5-min Rain = 0
KMNS 151325Z 27010KT 23/08 A2987 RMK A01 T02260077  RH  039%=      5-min Rain = 0
KMNS 151330Z 28010KT 23/07 A2987 RMK A01 T02310073  RH  037%=      5-min Rain = 0
KMNS 151335Z 29010KT 24/07 A2988 RMK A01 T02360071  RH  036%=      5-min Rain = 0
KMNS 151340Z 29011KT 24/07 A2987 RMK A01 T02390069  RH  034%=      5-min Rain = 0
KMNS 151345Z 30010G15KT 24/07 A2988 RMK A01 T02430069  RH  034%=      5-min Rain = 0
KMNS 151350Z 32011KT 24/07 A2988 RMK A01 T02440071  RH  034%=      5-min Rain = 0
KMNS 151355Z 33011KT 24/08 A2988 RMK A01 T02430077  RH  035%=      5-min Rain = 0
KMNS 151400Z 33010KT 24/08 A2988 RMK A01 T02430079  RH  036%=      5-min Rain = 0
KMNS 151405Z 35010KT 25/08 A2988 RMK A01 T02460075  RH  034%=      5-min Rain = 0
KMNS 151410Z 36011KT 25/06 A2988 RMK A01 T02490060  RH  030%=      5-min Rain = 0
KMNS 151415Z 01014KT 25/06 A2988 RMK A01 T02480059  RH  030%=      5-min Rain = 0
KMNS 151420Z 36012KT 25/06 A2988 RMK A01 T02470062  RH  031%=      5-min Rain = 0
KMNS 151425Z 35012KT 25/05 A2988 RMK A01 T02450053  RH  030%=      5-min Rain = 0
KMNS 151430Z 35013KT 25/05 A2989 RMK A01 T02480046  RH  028%=      5-min Rain = 0
KMNS 151435Z 34013KT 25/04 A2989 RMK A01 T02510039  RH  026%=      5-min Rain = 0
KMNS 151440Z 33013KT 25/04 A2989 RMK A01 T02530037  RH  025%=      5-min Rain = 0
KMNS 151445Z 32012G18KT 26/04 A2989 RMK A01 T02580035  RH  024%=      5-min Rain = 0
KMNS 151450Z 33012KT 26/03 A2989 RMK A01 T02610032  RH  023%=      5-min Rain = 0
KMNS 151455Z 33013KT 26/03 A2989 RMK A01 T02630027  RH  022%=      5-min Rain = 0
KMNS 151500Z 32015KT 27/02 A2989 RMK A01 T02660019  RH  020%=      5-min Rain = 0
KMNS 151505Z 31014KT 27/02 A2989 RMK A01 T02700018  RH  020%=      5-min Rain = 0
KMNS 151510Z 31014KT 27/02 A2989 RMK A01 T02720016  RH  019%=      5-min Rain = 0
KMNS 151515Z 31013G18KT 28/01 A2989 RMK A01 T02760014  RH  019%=      5-min Rain = 0
KMNS 151520Z 32013KT 28/02 A2989 RMK A01 T02790017  RH  019%=      5-min Rain = 0
KMNS 151525Z 33014KT 28/03 A2989 RMK A01 T02830028  RH  020%=      5-min Rain = 0
KMNS 151530Z 33014KT 28/03 A2989 RMK A01 T02820033  RH  021%=      5-min Rain = 0
KMNS 151535Z 32014KT 28/03 A299 RMK A01 T02830031  RH  020%=      5-min Rain = 0
KMNS 151540Z 31013KT 28/03 A299 RMK A01 T02840034  RH  021%=      5-min Rain = 0
KMNS 151545Z 32010G15KT 29/05 A299 RMK A01 T02850050  RH  023%=      5-min Rain = 0
KMNS 151550Z 32010KT 29/06 A299 RMK A01 T02880062  RH  024%=      5-min Rain = 0
KMNS 151555Z 33008G14KT 29/07 A299 RMK A01 T02880065  RH  025%=      5-min Rain = 0
KMNS 151600Z 32010G15KT 29/06 A299 RMK A01 T02920063  RH  024%=      5-min Rain = 0
KMNS 151605Z 33010G16KT 29/06 A299 RMK A01 T02920058  RH  023%=      5-min Rain = 0
KMNS 151610Z 32010KT 30/06 A299 RMK A01 T02950058  RH  023%=      5-min Rain = 0
KMNS 151615Z 33009KT 30/06 A299 RMK A01 T03010057  RH  022%=      5-min Rain = 0
KMNS 151620Z 33011KT 30/06 A299 RMK A01 T03020056  RH  022%=      5-min Rain = 0
KMNS 151625Z 32010KT 30/06 A299 RMK A01 T03020062  RH  023%=      5-min Rain = 0
KMNS 151630Z 31011KT 31/06 A299 RMK A01 T03060062  RH  022%=      5-min Rain = 0
KMNS 151635Z 33012KT 31/06 A299 RMK A01 T03110061  RH  021%=      5-min Rain = 0
KMNS 151640Z 32012G17KT 31/06 A299 RMK A01 T03130057  RH  020%=      5-min Rain = 0
KMNS 151645Z 34013KT 31/05 A299 RMK A01 T03110052  RH  020%=      5-min Rain = 0
KMNS 151650Z 33013G20KT 32/05 A2989 RMK A01 T03160047  RH  019%=      5-min Rain = 0
KMNS 151655Z 34013KT 32/05 A2989 RMK A01 T03210050  RH  019%=      5-min Rain = 0
KMNS 151700Z 34012G17KT 33/05 A2989 RMK A01 T03260049  RH  018%=      5-min Rain = 0
KMNS 151705Z 33014KT 33/05 A2989 RMK A01 T03250045  RH  018%=      5-min Rain = 0
KMNS 151710Z 33013KT 33/04 A2989 RMK A01 T03290043  RH  017%=      5-min Rain = 0
KMNS 151715Z 33014G20KT 33/05 A2989 RMK A01 T03310047  RH  017%=      5-min Rain = 0
KMNS 151720Z 33013G19KT 33/04 A2989 RMK A01 T03300042  RH  017%=      5-min Rain = 0
KMNS 151725Z 34015G21KT 33/04 A2989 RMK A01 T03330035  RH  016%=      5-min Rain = 0
KMNS 151730Z 33014G19KT 34/03 A299 RMK A01 T03350032  RH  015%=      5-min Rain = 0
KMNS 151735Z 33015KT 34/02 A299 RMK A01 T03380021  RH  014%=      5-min Rain = 0
KMNS 151740Z 34012G19KT 34/03 A2989 RMK A01 T03380031  RH  015%=      5-min Rain = 0
KMNS 151745Z 34013G18KT 35/03 A2989 RMK A01 T03450032  RH  014%=      5-min Rain = 0
KMNS 151750Z 33012G18KT 34/03 A2989 RMK A01 T03420033  RH  015%=      5-min Rain = 0
KMNS 151755Z 32012G18KT 34/03 A2989 RMK A01 T03390033  RH  015%=      5-min Rain = 0
KMNS 151800Z 32010G17KT 34/03 A2989 RMK A01 T03370032  RH  015%=      5-min Rain = 0
KMNS 151805Z 35011G18KT 34/03 A2989 RMK A01 T03380029  RH  015%=      5-min Rain = 0
KMNS 151810Z 34011G16KT 34/03 A2989 RMK A01 T03390028  RH  014%=      5-min Rain = 0
KMNS 151815Z 32010G18KT 34/02 A2989 RMK A01 T03430022  RH  013%=      5-min Rain = 0
KMNS 151820Z 34013G18KT 35/02 A2989 RMK A01 T03490023  RH  013%=      5-min Rain = 0
KMNS 151825Z 34011G19KT 34/02 A2989 RMK A01 T03430016  RH  013%=      5-min Rain = 0
KMNS 151830Z 34011KT 35/02 A2989 RMK A01 T03480017  RH  013%=      5-min Rain = 0
KMNS 151835Z 32010G17KT 35/02 A2989 RMK A01 T03480020  RH  013%=      5-min Rain = 0
KMNS 151840Z 31009G14KT 35/02 A2989 RMK A01 T03490017  RH  012%=      5-min Rain = 0
KMNS 151845Z 33009G15KT 35/01 A2989 RMK A01 T03460011  RH  012%=      5-min Rain = 0
KMNS 151850Z 32011G16KT 35/01 A2989 RMK A01 T03480014  RH  012%=      5-min Rain = 0
KMNS 151855Z 31010G18KT 35/01 A2988 RMK A01 T03490011  RH  012%=      5-min Rain = 0
KMNS 151900Z 30009G14KT 35/01 A2988 RMK A01 T03450011  RH  012%=      5-min Rain = 0
KMNS 151905Z 33006KT 34/01 A2988 RMK A01 T03410010  RH  013%=      5-min Rain = 0
KMNS 151910Z 33005G10KT 34/01 A2988 RMK A01 T03410007  RH  012%=      5-min Rain = 0
KMNS 151915Z 30011G18KT 35/02 A2988 RMK A01 T03540017  RH  012%=      5-min Rain = 0
KMNS 151920Z 30010G16KT 36/01 A2988 RMK A01 T03600013  RH  011%=      5-min Rain = 0
KMNS 151925Z 32006G13KT 35/01 A2988 RMK A01 T03540011  RH  012%=      5-min Rain = 0
KMNS 151930Z 31011G16KT 36/01 A2988 RMK A01 T03560006  RH  011%=      5-min Rain = 0
KMNS 151935Z 29010KT 34/M00 A2988 RMK A01 T03441001  RH  011%=      5-min Rain = 0
KMNS 151940Z 30005KT 34/00 A2988 RMK A01 T03420001  RH  012%=      5-min Rain = 0
KMNS 151945Z 30006G20KT 35/00 A2987 RMK A01 T03500000  RH  011%=      5-min Rain = 0
KMNS 151950Z 24012G18KT 36/M02 A2987 RMK A01 T03631017  RH  009%=      5-min Rain = 0
KMNS 151955Z 25010G15KT 36/M02 A2987 RMK A01 T03631019  RH  009%=      5-min Rain = 0
KMNS 152000Z 23012KT 36/M02 A2987 RMK A01 T03631021  RH  009%=      5-min Rain = 0
KMNS 152005Z 21010G17KT 35/M02 A2987 RMK A01 T03501022  RH  009%=      5-min Rain = 0
KMNS 152010Z 20011G16KT 34/M02 A2987 RMK A01 T03431021  RH  010%=      5-min Rain = 0
KMNS 152015Z 27007G14KT 35/M02 A2987 RMK A01 T03451021  RH  010%=      5-min Rain = 0
KMNS 152020Z 22005KT 35/M02 A2986 RMK A01 T03481018  RH  010%=      5-min Rain = 0
KMNS 152025Z 29006G11KT 35/M02 A2986 RMK A01 T03451020  RH  010%=      5-min Rain = 0
KMNS 152030Z 24011KT 35/M02 A2986 RMK A01 T03541022  RH  009%=      5-min Rain = 0
KMNS 152035Z 24008G14KT 35/M03 A2986 RMK A01 T03501030  RH  009%=      5-min Rain = 0
KMNS 152040Z 26007KT 35/M03 A2985 RMK A01 T03541026  RH  009%=      5-min Rain = 0
KMNS 152045Z 27011G17KT 36/M03 A2985 RMK A01 T03581031  RH  008%=      5-min Rain = 0
KMNS 152050Z 25012G17KT 35/M04 A2985 RMK A01 T03541043  RH  008%=      5-min Rain = 0
KMNS 152055Z 25013G18KT 36/M04 A2985 RMK A01 T03621043  RH  007%=      5-min Rain = 0
KMNS 152100Z 24007G12KT 36/M04 A2985 RMK A01 T03551042  RH  008%=      5-min Rain = 0
KMNS 152105Z 26008G13KT 36/M05 A2985 RMK A01 T03571045  RH  008%=      5-min Rain = 0
KMNS 152110Z 25009G14KT 36/M05 A2984 RMK A01 T03581052  RH  007%=      5-min Rain = 0
KMNS 152115Z 26013G23KT 36/M05 A2984 RMK A01 T03621053  RH  007%=      5-min Rain = 0
KMNS 152120Z 25012G19KT 36/M06 A2984 RMK A01 T03591060  RH  007%=      5-min Rain = 0
KMNS 152125Z 25006G16KT 36/M06 A2984 RMK A01 T03561056  RH  007%=      5-min Rain = 0
KMNS 152130Z 28012KT 36/M05 A2984 RMK A01 T03631048  RH  007%=      5-min Rain = 0
KMNS 152135Z 28009G14KT 36/M05 A2983 RMK A01 T03601046  RH  007%=      5-min Rain = 0
KMNS 152140Z 25015G22KT 36/M05 A2983 RMK A01 T03621051  RH  007%=      5-min Rain = 0
KMNS 152145Z 24008G14KT 36/M05 A2983 RMK A01 T03591053  RH  007%=      5-min Rain = 0
KMNS 152150Z 22013KT 36/M05 A2983 RMK A01 T03631049  RH  007%=      5-min Rain = 0
KMNS 152155Z 23014G20KT 37/M05 A2982 RMK A01 T03651049  RH  007%=      5-min Rain = 0
KMNS 152200Z 23016G23KT 36/M05 A2982 RMK A01 T03611054  RH  007%=      5-min Rain = 0
KMNS 152205Z 23012G18KT 37/M05 A2982 RMK A01 T03651047  RH  007%=      5-min Rain = 0
KMNS 152210Z 22017G27KT 37/M05 A2981 RMK A01 T03671050  RH  007%=      5-min Rain = 0
KMNS 152215Z 21014KT 36/M05 A2981 RMK A01 T03591051  RH  007%=      5-min Rain = 0
KMNS 152220Z 23014G23KT 36/M05 A2981 RMK A01 T03601052  RH  007%=      5-min Rain = 0
KMNS 152225Z 24012G21KT 36/M05 A2981 RMK A01 T03611050  RH  007%=      5-min Rain = 0
KMNS 152230Z 24017G22KT 36/M06 A2981 RMK A01 T03621060  RH  007%=      5-min Rain = 0
KMNS 152235Z 22016G22KT 36/M06 A2981 RMK A01 T03601055  RH  007%=      5-min Rain = 0
KMNS 152240Z 20011KT 36/M05 A2981 RMK A01 T03551053  RH  007%=      5-min Rain = 0
KMNS 152245Z 20010G15KT 36/M05 A2981 RMK A01 T03551051  RH  007%=      5-min Rain = 0
KMNS 152250Z 23016G22KT 36/M05 A2981 RMK A01 T03591051  RH  007%=      5-min Rain = 0
KMNS 152255Z 24013G21KT 36/M05 A2981 RMK A01 T03571054  RH  007%=      5-min Rain = 0
KMNS 152300Z 24016G25KT 36/M05 A2981 RMK A01 T03601052  RH  007%=      5-min Rain = 0
KMNS 152305Z 24019G25KT 36/M06 A2981 RMK A01 T03581057  RH  007%=      5-min Rain = 0
KMNS 152310Z 25016G23KT 36/M06 A2981 RMK A01 T03551059  RH  007%=      5-min Rain = 0
KMNS 152315Z 24014KT 36/M06 A298 RMK A01 T03561056  RH  007%=      5-min Rain = 0
KMNS 152320Z 22015G24KT 36/M05 A298 RMK A01 T03551053  RH  007%=      5-min Rain = 0
KMNS 152325Z 23015G21KT 35/M06 A298 RMK A01 T03531057  RH  007%=      5-min Rain = 0
KMNS 152330Z 22015G24KT 35/M06 A2981 RMK A01 T03521056  RH  007%=      5-min Rain = 0
KMNS 152335Z 22009KT 35/M06 A2981 RMK A01 T03511055  RH  007%=      5-min Rain = 0
KMNS 152340Z 22013G18KT 35/M05 A298 RMK A01 T03531054  RH  007%=      5-min Rain = 0
KMNS 152345Z 25015KT 35/M06 A298 RMK A01 T03501063  RH  007%=      5-min Rain = 0
KMNS 152350Z 26011KT 34/M07 A298 RMK A01 T03421066  RH  007%=      5-min Rain = 0
KMNS 152355Z 24010KT 34/M07 A298 RMK A01 T03391066  RH  007%=      5-min Rain = 0
KMNS 160000Z 25008KT 35/M06 A298 RMK A01 T03451062  RH  007%=      5-min Rain = 0
KMNS 160005Z 25007KT 35/M05 A2981 RMK A01 T03481054  RH  007%=      5-min Rain = 0
KMNS 160010Z 31006G12KT 35/M04 A2982 RMK A01 T03461037  RH  009%=      5-min Rain = 0
KMNS 160015Z 04011G16KT 31/08 A2982 RMK A01 T03120075  RH  023%=      5-min Rain = 0
KMNS 160020Z 05012KT 30/09 A2982 RMK A01 T03040086  RH  026%=      5-min Rain = 0
KMNS 160025Z 05014G19KT 31/09 A2982 RMK A01 T03080092  RH  027%=      5-min Rain = 0
KMNS 160030Z 04020KT 30/10 A2982 RMK A01 T03010102  RH  030%=      5-min Rain = 0
KMNS 160035Z 04022KT 29/11 A2982 RMK A01 T02920109  RH  033%=      5-min Rain = 0
KMNS 160040Z 05020KT 29/12 A2983 RMK A01 T02890116  RH  035%=      5-min Rain = 0
KMNS 160045Z 05020KT 29/12 A2983 RMK A01 T02870118  RH  037%=      5-min Rain = 0
KMNS 160050Z 05020KT 29/12 A2984 RMK A01 T02860121  RH  037%=      5-min Rain = 0
KMNS 160055Z 05018KT 29/13 A2984 RMK A01 T02850125  RH  039%=      5-min Rain = 0
KMNS 160100Z 05017KT 29/13 A2985 RMK A01 T02850129  RH  040%=      5-min Rain = 0
KMNS 160105Z 06017KT 28/12 A2985 RMK A01 T02840124  RH  038%=      5-min Rain = 0
KMNS 160110Z 06018G25KT 28/12 A2986 RMK A01 T02840117  RH  037%=      5-min Rain = 0
KMNS 160115Z 06024G33KT 28/10 A2986 RMK A01 T02770100  RH  034%=      5-min Rain = 0
KMNS 160120Z 06023G28KT 27/10 A2986 RMK A01 T02730097  RH  034%=      5-min Rain = 0
KMNS 160125Z 06022G27KT 27/10 A2986 RMK A01 T02700096  RH  035%=      5-min Rain = 0
KMNS 160130Z 06021G28KT 27/10 A2986 RMK A01 T02670102  RH  037%=      5-min Rain = 0
KMNS 160135Z 07020G26KT 26/11 A2986 RMK A01 T02610114  RH  041%=      5-min Rain = 0
KMNS 160140Z 07014G19KT 26/12 A2987 RMK A01 T02590117  RH  043%=      5-min Rain = 0
KMNS 160145Z 07015G20KT 26/12 A2987 RMK A01 T02560117  RH  043%=      5-min Rain = 0
KMNS 160150Z 07018G24KT 25/11 A2986 RMK A01 T02500110  RH  043%=      5-min Rain = 0
KMNS 160155Z 07018G25KT 25/10 A2986 RMK A01 T02470101  RH  041%=      5-min Rain = 0
KMNS 160200Z 06021G26KT 25/09 A2986 RMK A01 T02450088  RH  038%=      5-min Rain = 0
KMNS 160205Z 07019KT 24/09 A2987 RMK A01 T02410086  RH  038%=      5-min Rain = 0
KMNS 160210Z 07016G21KT 24/09 A2986 RMK A01 T02390085  RH  038%=      5-min Rain = 0
KMNS 160215Z 07014KT 24/09 A2986 RMK A01 T02360085  RH  039%=      5-min Rain = 0
KMNS 160220Z 08010KT 23/09 A2986 RMK A01 T02330087  RH  040%=      5-min Rain = 0
KMNS 160225Z 08007KT 23/09 A2986 RMK A01 T02260091  RH  043%=      5-min Rain = 0
KMNS 160230Z 08008KT 22/09 A2986 RMK A01 T02210091  RH  045%=      5-min Rain = 0
KMNS 160235Z 10008KT 22/09 A2985 RMK A01 T02170091  RH  046%=      5-min Rain = 0
KMNS 160240Z 10006KT 21/09 A2985 RMK A01 T02120091  RH  047%=      5-min Rain = 0
KMNS 160245Z 09005KT 21/09 A2985 RMK A01 T02090091  RH  048%=      5-min Rain = 0
KMNS 160250Z 09005KT 21/09 A2985 RMK A01 T02090089  RH  048%=      5-min Rain = 0
KMNS 160255Z 10005KT 21/09 A2985 RMK A01 T02070089  RH  048%=      5-min Rain = 0
KMNS 160300Z 11004KT 21/09 A2985 RMK A01 T02060088  RH  048%=      5-min Rain = 0
KMNS 160305Z 11004KT 21/09 A2985 RMK A01 T02070087  RH  048%=      5-min Rain = 0
KMNS 160310Z 10004KT 21/09 A2986 RMK A01 T02060085  RH  047%=      5-min Rain = 0
KMNS 160315Z 08006KT 21/08 A2986 RMK A01 T02060082  RH  046%=      5-min Rain = 0
KMNS 160320Z 09008KT 21/08 A2987 RMK A01 T02050077  RH  045%=      5-min Rain = 0
KMNS 160325Z 08010KT 21/07 A2987 RMK A01 T02080074  RH  043%=      5-min Rain = 0
KMNS 160330Z 09010KT 21/07 A2988 RMK A01 T02110074  RH  042%=      5-min Rain = 0
KMNS 160335Z 11007KT 21/08 A2988 RMK A01 T02050076  RH  044%=      5-min Rain = 0
KMNS 160340Z 11007KT 20/08 A2988 RMK A01 T01990077  RH  047%=      5-min Rain = 0
KMNS 160345Z 11007KT 20/08 A2989 RMK A01 T01980078  RH  047%=      5-min Rain = 0
KMNS 160350Z 12006KT 20/08 A2989 RMK A01 T01990078  RH  047%=      5-min Rain = 0
KMNS 160355Z 10006KT 20/08 A2989 RMK A01 T01980079  RH  048%=      5-min Rain = 0
KMNS 160400Z 10008KT 20/08 A2989 RMK A01 T01980080  RH  048%=      5-min Rain = 0
KMNS 160405Z 09007KT 20/08 A299 RMK A01 T01970081  RH  048%=      5-min Rain = 0
KMNS 160410Z 10007KT 20/08 A299 RMK A01 T01950081  RH  049%=      5-min Rain = 0
KMNS 160415Z 09007KT 19/08 A299 RMK A01 T01930082  RH  050%=      5-min Rain = 0
KMNS 160420Z 10008KT 19/08 A299 RMK A01 T01930081  RH  050%=      5-min Rain = 0
KMNS 160425Z 07008KT 20/08 A299 RMK A01 T01950079  RH  048%=      5-min Rain = 0
KMNS 160430Z 01019G27KT 20/08 A2993 RMK A01 T01960076  RH  047%=      5-min Rain = 0
KMNS 160435Z 02015G22KT 20/07 A2993 RMK A01 T02010073  RH  045%=      5-min Rain = 0
KMNS 160440Z 01015G20KT 20/07 A2994 RMK A01 T02010071  RH  044%=      5-min Rain = 0
KMNS 160445Z 01013G19KT 20/07 A2994 RMK A01 T02000070  RH  044%=      5-min Rain = 0
KMNS 160450Z 02009KT 20/07 A2994 RMK A01 T01980071  RH  045%=      5-min Rain = 0
KMNS 160455Z 02009KT 20/07 A2994 RMK A01 T01950070  RH  045%=      5-min Rain = 0

Page generated in 0.009 seconds.